createdAt,value
2022-08-23T00:01:58.768Z,4.00
2022-08-23T00:04:34.957Z,5.60
2022-08-23T00:07:05.759Z,6.90
2022-08-23T00:09:34.423Z,5.00
2022-08-23T00:12:18.286Z,7.00
2022-08-23T00:17:33.262Z,8.00
2022-08-23T00:20:08.268Z,6.40
2022-08-23T00:25:07.652Z,6.50
2022-08-23T00:27:36.656Z,4.90
2022-08-23T00:30:09.123Z,6.00
2022-08-23T00:32:39.190Z,7.40
2022-08-23T00:35:09.647Z,5.70
2022-08-23T00:37:39.165Z,3.60
2022-08-23T00:40:10.129Z,5.20
2022-08-23T00:43:11.001Z,4.60
2022-08-23T00:46:11.033Z,5.20
2022-08-23T00:48:40.331Z,5.20
2022-08-23T00:51:14.755Z,6.20
2022-08-23T00:53:47.981Z,6.30
2022-08-23T00:56:18.032Z,7.90
2022-08-23T00:58:47.239Z,6.00
2022-08-23T01:01:16.143Z,8.50
2022-08-23T01:04:04.022Z,6.30
2022-08-23T01:07:03.024Z,7.80
2022-08-23T01:09:31.300Z,6.60
2022-08-23T01:12:32.397Z,9.10
2022-08-23T01:15:09.257Z,6.40
2022-08-23T01:17:46.417Z,6.30
2022-08-23T01:20:22.296Z,8.40
2022-08-23T01:23:24.705Z,7.70
2022-08-23T01:25:53.221Z,8.80
2022-08-23T01:28:21.637Z,8.80
2022-08-23T01:30:50.152Z,10.30
2022-08-23T01:33:20.265Z,8.30
2022-08-23T01:35:53.656Z,7.80
2022-08-23T01:38:23.988Z,10.60
2022-08-23T01:40:53.589Z,9.60
2022-08-23T01:43:23.179Z,8.80
2022-08-23T01:45:54.538Z,14.20
2022-08-23T01:48:24.957Z,8.80
2022-08-23T01:50:53.348Z,9.70
2022-08-23T01:53:21.685Z,9.90
2022-08-23T01:55:51.160Z,11.80
2022-08-23T01:58:21.576Z,12.80
2022-08-23T02:00:49.872Z,11.80
2022-08-23T02:03:19.728Z,11.30
2022-08-23T02:05:48.225Z,8.00
2022-08-23T02:08:35.048Z,9.90
2022-08-23T02:11:12.713Z,8.60
2022-08-23T02:13:45.258Z,9.60
2022-08-23T02:16:22.265Z,12.50
2022-08-23T02:18:51.731Z,10.80
2022-08-23T02:21:20.174Z,10.40
2022-08-23T02:23:49.040Z,11.70
2022-08-23T02:26:18.150Z,12.70
2022-08-23T02:28:50.294Z,12.80
2022-08-23T02:31:19.456Z,11.50
2022-08-23T02:33:48.702Z,12.30
2022-08-23T02:38:51.654Z,11.50
2022-08-23T02:41:19.881Z,12.80
2022-08-23T02:43:52.249Z,11.10
2022-08-23T02:46:21.533Z,14.50
2022-08-23T02:48:49.977Z,11.30
2022-08-23T02:51:18.909Z,16.50
2022-08-23T02:53:47.046Z,11.70
2022-08-23T02:56:21.628Z,11.70
2022-08-23T02:58:54.569Z,17.20
2022-08-23T03:01:28.847Z,9.60
2022-08-23T03:04:00.927Z,14.30
2022-08-23T03:06:29.948Z,13.30
2022-08-23T03:08:58.482Z,14.20
2022-08-23T03:11:26.700Z,12.20
2022-08-23T03:13:56.511Z,13.30
2022-08-23T03:16:25.072Z,15.10
2022-08-23T03:18:53.323Z,14.10
2022-08-23T03:21:22.676Z,19.30
2022-08-23T03:23:51.604Z,15.80
2022-08-23T03:26:20.113Z,13.80
2022-08-23T03:28:48.520Z,16.30
2022-08-23T03:31:18.075Z,14.80
2022-08-23T03:34:03.768Z,16.50
2022-08-23T03:36:32.546Z,13.80
2022-08-23T03:39:00.927Z,13.10
2022-08-23T03:41:29.443Z,13.40
2022-08-23T03:43:57.739Z,18.40
2022-08-23T03:46:27.092Z,15.80
2022-08-23T03:49:01.664Z,15.90
2022-08-23T03:51:34.663Z,14.60
2022-08-23T03:54:03.669Z,15.80
2022-08-23T03:56:35.630Z,14.50
2022-08-23T03:59:09.608Z,15.70
2022-08-23T04:01:37.893Z,13.00
2022-08-23T04:04:06.349Z,15.50
2022-08-23T04:06:35.552Z,13.10
2022-08-23T04:09:04.360Z,15.60
2022-08-23T04:11:33.073Z,15.10
2022-08-23T04:14:06.492Z,18.30
2022-08-23T04:16:37.878Z,18.00
2022-08-23T04:19:13.346Z,13.80
2022-08-23T04:21:52.724Z,12.30
2022-08-23T04:24:20.928Z,13.70
2022-08-23T04:26:49.656Z,14.10
2022-08-23T04:29:33.739Z,15.30
2022-08-23T04:32:05.699Z,16.40
2022-08-23T04:34:38.364Z,13.50
2022-08-23T04:37:10.120Z,15.10
2022-08-23T04:39:57.288Z,17.80
2022-08-23T04:42:26.333Z,16.40
2022-08-23T04:44:55.020Z,16.80
2022-08-23T04:47:24.115Z,16.80
2022-08-23T04:49:53.105Z,18.00
2022-08-23T04:52:21.269Z,13.60
2022-08-23T04:54:50.301Z,16.30
2022-08-23T04:57:42.692Z,19.90
2022-08-23T05:00:16.613Z,14.90
2022-08-23T05:02:51.118Z,22.00
2022-08-23T05:05:20.931Z,22.30
2022-08-23T05:07:49.495Z,16.30
2022-08-23T05:10:17.847Z,17.20
2022-08-23T05:12:49.214Z,18.50
2022-08-23T05:15:18.247Z,18.70
2022-08-23T05:17:48.339Z,18.90
2022-08-23T05:20:17.823Z,19.20
2022-08-23T05:22:46.559Z,16.20
2022-08-23T05:25:22.699Z,14.30
2022-08-23T05:27:51.647Z,14.40
2022-08-23T05:30:19.814Z,18.40
2022-08-23T05:32:48.286Z,13.80
2022-08-23T05:35:16.527Z,19.70
2022-08-23T05:37:45.466Z,17.30
2022-08-23T05:40:14.592Z,19.80
2022-08-23T05:42:54.627Z,16.60
2022-08-23T05:45:22.853Z,20.90
2022-08-23T05:47:51.498Z,18.90
2022-08-23T05:50:38.376Z,19.20
2022-08-23T05:53:07.789Z,16.00
2022-08-23T05:55:36.281Z,14.70
2022-08-23T05:58:18.248Z,18.90
2022-08-23T06:00:46.683Z,18.80
2022-08-23T06:03:15.197Z,19.80
2022-08-23T06:05:43.542Z,17.20
2022-08-23T06:08:12.783Z,19.30
2022-08-23T06:10:42.507Z,16.70
2022-08-23T06:13:25.803Z,19.20
2022-08-23T06:15:54.436Z,14.70
2022-08-23T06:18:24.630Z,13.30
2022-08-23T06:21:10.334Z,18.10
2022-08-23T06:23:49.721Z,20.20
2022-08-23T06:26:22.469Z,14.70
2022-08-23T06:28:54.536Z,19.30
2022-08-23T06:31:43.238Z,16.30
2022-08-23T06:34:18.503Z,17.20
2022-08-23T06:37:15.135Z,13.80
2022-08-23T06:40:01.817Z,17.90
2022-08-23T06:42:48.510Z,16.40
2022-08-23T06:45:33.782Z,17.80
2022-08-23T06:48:04.133Z,20.10
2022-08-23T06:50:32.929Z,17.80
2022-08-23T06:53:19.521Z,16.80
2022-08-23T06:56:07.908Z,20.90
2022-08-23T06:59:06.921Z,17.90
2022-08-23T07:01:56.958Z,19.10
2022-08-23T07:04:36.342Z,20.70
2022-08-23T07:07:09.495Z,22.60
2022-08-23T07:09:41.286Z,13.80
2022-08-23T07:12:09.437Z,20.50
2022-08-23T07:14:40.085Z,17.30
2022-08-23T07:17:09.778Z,17.70
2022-08-23T07:19:38.178Z,19.30
2022-08-23T07:22:20.746Z,19.30
2022-08-23T07:24:48.922Z,20.70
2022-08-23T07:27:17.210Z,24.80
2022-08-23T07:29:53.249Z,15.90
2022-08-23T07:32:21.877Z,16.70
2022-08-23T07:34:51.285Z,21.50
2022-08-23T07:37:20.909Z,16.20
2022-08-23T07:39:49.087Z,14.90
2022-08-23T07:42:22.737Z,16.30
2022-08-23T07:44:53.707Z,17.90
2022-08-23T07:47:23.674Z,15.60
2022-08-23T07:49:52.709Z,21.10
2022-08-23T07:52:21.537Z,15.50
2022-08-23T07:54:49.965Z,19.90
2022-08-23T07:57:36.725Z,19.50
2022-08-23T08:00:23.551Z,19.20
2022-08-23T08:03:00.542Z,17.40
2022-08-23T08:05:36.679Z,16.70
2022-08-23T08:08:05.579Z,16.80
2022-08-23T08:10:38.448Z,14.80
2022-08-23T08:13:08.558Z,17.70
2022-08-23T08:15:42.074Z,19.20
2022-08-23T08:18:12.686Z,19.10
2022-08-23T08:21:19.562Z,24.40
2022-08-23T08:24:14.050Z,23.10
2022-08-23T08:26:46.598Z,21.30
2022-08-23T08:29:15.475Z,17.00
2022-08-23T08:31:49.509Z,19.40
2022-08-23T08:34:20.779Z,18.30
2022-08-23T08:36:54.852Z,23.70
2022-08-23T08:39:31.193Z,20.40
2022-08-23T08:42:33.761Z,19.50
2022-08-23T08:45:07.770Z,23.30
2022-08-23T08:47:43.970Z,17.40
2022-08-23T08:50:41.584Z,21.50
2022-08-23T08:53:16.606Z,19.40
2022-08-23T08:56:16.581Z,18.10
2022-08-23T08:58:52.949Z,17.70
2022-08-23T09:01:24.787Z,19.40
2022-08-23T09:03:53.997Z,19.60
2022-08-23T09:06:42.209Z,17.10
2022-08-23T09:09:37.039Z,15.90
2022-08-23T09:12:16.428Z,21.20
2022-08-23T09:15:06.161Z,21.80
2022-08-23T09:17:54.891Z,18.80
2022-08-23T09:20:32.806Z,15.00
2022-08-23T09:23:13.051Z,14.60
2022-08-23T09:25:41.946Z,17.70
2022-08-23T09:28:16.072Z,23.50
2022-08-23T09:30:50.361Z,19.80
2022-08-23T09:33:27.283Z,17.60
2022-08-23T09:36:12.769Z,16.00
2022-08-23T09:38:54.006Z,14.30
2022-08-23T09:41:29.482Z,16.80
2022-08-23T09:44:02.464Z,17.50
2022-08-23T09:46:36.000Z,17.60
2022-08-23T09:49:22.857Z,17.60
2022-08-23T09:51:52.435Z,19.50
2022-08-23T09:54:32.343Z,21.10
2022-08-23T09:57:10.388Z,16.60
2022-08-23T09:59:44.928Z,21.50
2022-08-23T10:02:22.511Z,19.80
2022-08-23T10:05:01.682Z,18.20
2022-08-23T10:07:42.611Z,22.60
2022-08-23T10:10:26.365Z,16.60
2022-08-23T10:12:57.155Z,16.80
2022-08-23T10:15:52.418Z,20.40
2022-08-23T10:18:42.696Z,16.50
2022-08-23T10:21:35.537Z,16.30
2022-08-23T10:24:22.681Z,16.00
2022-08-23T10:27:41.656Z,16.70
2022-08-23T10:30:18.508Z,20.70
2022-08-23T10:32:50.086Z,16.80
2022-08-23T10:35:36.529Z,17.70
2022-08-23T10:38:24.240Z,16.70
2022-08-23T10:41:47.712Z,15.60
2022-08-23T10:44:35.376Z,13.40
2022-08-23T10:47:27.412Z,14.40
2022-08-23T10:50:00.524Z,16.10
2022-08-23T10:52:36.208Z,19.80
2022-08-23T10:55:17.272Z,12.90
2022-08-23T10:57:49.246Z,17.20
2022-08-23T11:00:22.829Z,12.80
2022-08-23T11:03:10.029Z,18.00
2022-08-23T11:05:39.305Z,13.30
2022-08-23T11:08:34.377Z,13.90
2022-08-23T11:11:04.105Z,14.10
2022-08-23T11:13:35.425Z,12.50
2022-08-23T11:16:03.831Z,14.40
2022-08-23T11:18:37.988Z,10.80
2022-08-23T11:24:05.280Z,17.20
2022-08-23T11:26:38.152Z,15.80
2022-08-23T11:31:47.589Z,16.10
2022-08-23T11:34:27.296Z,11.30
2022-08-23T11:37:18.958Z,17.30
2022-08-23T11:39:58.076Z,15.90
2022-08-23T11:42:48.208Z,15.60
2022-08-23T11:45:37.710Z,17.30
2022-08-23T11:48:20.487Z,14.30
2022-08-23T11:50:57.602Z,13.50
2022-08-23T11:53:44.893Z,17.90
2022-08-23T11:56:37.144Z,13.20
2022-08-23T11:59:17.561Z,15.80
2022-08-23T12:01:47.231Z,16.00
2022-08-23T12:04:51.984Z,13.30
2022-08-23T12:07:59.985Z,14.10
2022-08-23T12:10:43.012Z,14.50
2022-08-23T12:13:23.154Z,12.70
2022-08-23T12:16:19.974Z,15.30
2022-08-23T12:18:52.979Z,16.00
2022-08-23T12:21:39.349Z,14.50
2022-08-23T12:24:19.167Z,14.60
2022-08-23T12:26:59.275Z,13.20
2022-08-23T12:29:45.439Z,14.00
2022-08-23T12:32:25.536Z,14.50
2022-08-23T12:35:19.174Z,16.20
2022-08-23T12:38:02.148Z,16.90
2022-08-23T12:40:35.253Z,14.10
2022-08-23T12:43:22.589Z,12.80
2022-08-23T12:45:57.924Z,19.50
2022-08-23T12:48:33.417Z,17.50
2022-08-23T12:51:11.368Z,16.00
2022-08-23T12:53:45.736Z,16.10
2022-08-23T12:56:22.835Z,17.00
2022-08-23T12:59:05.007Z,13.00
2022-08-23T13:01:39.174Z,18.30
2022-08-23T13:04:11.743Z,12.30
2022-08-23T13:06:55.518Z,13.90
2022-08-23T13:09:33.910Z,16.70
2022-08-23T13:12:03.314Z,11.70
2022-08-23T13:14:40.270Z,19.10
2022-08-23T13:17:20.253Z,12.20
2022-08-23T13:19:52.121Z,15.80
2022-08-23T13:22:20.265Z,15.80
2022-08-23T13:25:32.119Z,14.40
2022-08-23T13:28:06.341Z,18.80
2022-08-23T13:30:39.235Z,20.30
2022-08-23T13:33:07.875Z,14.90
2022-08-23T13:35:44.574Z,18.10
2022-08-23T13:38:20.124Z,15.60
2022-08-23T13:41:05.009Z,14.20
2022-08-23T13:43:40.182Z,20.40
2022-08-23T13:46:11.535Z,19.00
2022-08-23T13:48:54.695Z,16.70
2022-08-23T13:51:38.786Z,19.10
2022-08-23T13:54:13.372Z,20.00
2022-08-23T13:56:45.635Z,17.80
2022-08-23T13:59:35.583Z,17.60
2022-08-23T14:02:09.299Z,17.40
2022-08-23T14:04:37.577Z,18.30
2022-08-23T14:07:06.324Z,16.10
2022-08-23T14:09:38.293Z,20.50
2022-08-23T14:12:17.524Z,16.60
2022-08-23T14:14:46.728Z,14.20
2022-08-23T14:17:15.776Z,23.30
2022-08-23T14:22:36.118Z,18.00
2022-08-23T14:25:05.760Z,16.60
2022-08-23T14:27:34.743Z,20.40
2022-08-23T14:30:05.673Z,12.90
2022-08-23T14:32:33.981Z,21.10
2022-08-23T14:35:02.106Z,16.90
2022-08-23T14:40:18.978Z,16.90
2022-08-23T14:42:47.555Z,23.40
2022-08-23T14:45:18.285Z,17.10
2022-08-23T14:47:46.526Z,15.90
2022-08-23T14:50:15.869Z,19.00
2022-08-23T14:52:46.553Z,21.00
2022-08-23T14:55:14.866Z,19.60
2022-08-23T14:57:43.598Z,17.90
2022-08-23T15:00:15.622Z,20.10
2022-08-23T15:02:46.239Z,20.30
2022-08-23T15:05:15.695Z,20.40
2022-08-23T15:07:44.251Z,17.30
2022-08-23T15:10:49.940Z,15.40
2022-08-23T15:13:20.696Z,18.70
2022-08-23T15:15:52.955Z,17.80
2022-08-23T15:18:21.097Z,14.80
2022-08-23T15:20:49.566Z,18.20
2022-08-23T15:23:21.278Z,19.50
2022-08-23T15:25:50.298Z,21.80
2022-08-23T15:28:21.057Z,19.00
2022-08-23T15:30:50.274Z,17.90
2022-08-23T15:33:23.500Z,22.80
2022-08-23T15:35:57.298Z,14.00
2022-08-23T15:38:26.487Z,17.40
2022-08-23T15:40:55.232Z,15.20
2022-08-23T15:43:30.088Z,21.60
2022-08-23T15:46:19.323Z,15.80
2022-08-23T15:48:58.604Z,23.50
2022-08-23T15:51:26.748Z,18.90
2022-08-23T15:53:56.572Z,15.70
2022-08-23T15:56:41.687Z,22.70
2022-08-23T16:01:42.332Z,15.80
2022-08-23T16:04:11.613Z,26.30
2022-08-23T16:06:41.553Z,16.10
2022-08-23T16:09:18.173Z,14.90
2022-08-23T16:11:46.704Z,19.80
2022-08-23T16:14:15.192Z,19.40
2022-08-23T16:16:46.912Z,19.10
2022-08-23T16:19:16.735Z,20.40
2022-08-23T16:21:45.169Z,22.60
2022-08-23T16:24:13.839Z,16.10
2022-08-23T16:26:45.512Z,20.70
2022-08-23T16:29:17.275Z,14.90
2022-08-23T16:31:46.737Z,15.80
2022-08-23T16:34:18.247Z,18.60
2022-08-23T16:36:50.657Z,14.80
2022-08-23T16:39:18.860Z,15.50
2022-08-23T16:41:46.973Z,23.40
2022-08-23T16:44:15.112Z,16.70
2022-08-23T16:46:44.195Z,21.70
2022-08-23T16:49:14.416Z,18.50
2022-08-23T16:51:43.262Z,25.60
2022-08-23T16:54:11.328Z,19.60
2022-08-23T16:56:40.989Z,17.30
2022-08-23T16:59:10.819Z,20.50
2022-08-23T17:02:10.643Z,21.50
2022-08-23T17:04:39.338Z,18.20
2022-08-23T17:07:07.620Z,25.90
2022-08-23T17:09:35.730Z,26.30
2022-08-23T17:12:04.027Z,20.30
2022-08-23T17:14:32.441Z,20.00
2022-08-23T17:17:00.775Z,15.90
2022-08-23T17:19:29.665Z,18.10
2022-08-23T17:22:01.981Z,26.80
2022-08-23T17:24:30.100Z,19.10
2022-08-23T17:26:58.335Z,25.50
2022-08-23T17:29:26.492Z,24.80
2022-08-23T17:31:54.793Z,19.80
2022-08-23T17:34:23.192Z,20.10
2022-08-23T17:36:54.133Z,15.20
2022-08-23T17:39:27.502Z,22.10
2022-08-23T17:41:57.964Z,22.40
2022-08-23T17:44:26.161Z,20.30
2022-08-23T17:46:54.304Z,19.60
2022-08-23T17:49:22.809Z,21.10
2022-08-23T17:52:17.260Z,24.60
2022-08-23T17:54:45.377Z,14.70
2022-08-23T17:57:39.512Z,15.80
2022-08-23T18:00:09.588Z,18.50
2022-08-23T18:02:38.280Z,14.30
2022-08-23T18:05:08.067Z,18.10
2022-08-23T18:07:36.995Z,16.90
2022-08-23T18:10:07.480Z,14.00
2022-08-23T18:12:35.608Z,16.90
2022-08-23T18:15:04.640Z,16.70
2022-08-23T18:17:40.390Z,13.40
2022-08-23T18:20:11.139Z,15.00
2022-08-23T18:22:39.976Z,11.80
2022-08-23T18:25:10.229Z,18.60
2022-08-23T18:27:57.147Z,16.10
2022-08-23T18:30:25.577Z,14.10
2022-08-23T18:32:53.848Z,13.40
2022-08-23T18:35:22.355Z,13.10
2022-08-23T18:37:50.512Z,12.70
2022-08-23T18:40:19.191Z,13.60
2022-08-23T18:43:18.035Z,11.80
2022-08-23T18:45:48.267Z,12.20
2022-08-23T18:48:17.283Z,16.20
2022-08-23T18:50:46.516Z,17.40
2022-08-23T18:53:14.788Z,15.40
2022-08-23T18:55:43.335Z,13.80
2022-08-23T18:58:11.596Z,13.20
2022-08-23T19:00:39.835Z,15.20
2022-08-23T19:03:08.785Z,14.70
2022-08-23T19:05:42.282Z,13.60
2022-08-23T19:08:11.950Z,14.40
2022-08-23T19:10:42.077Z,15.30
2022-08-23T19:13:35.173Z,15.20
2022-08-23T19:16:06.628Z,16.30
2022-08-23T19:18:35.895Z,20.30
2022-08-23T19:21:04.651Z,13.00
2022-08-23T19:23:33.119Z,18.10
2022-08-23T19:26:13.114Z,17.60
2022-08-23T19:28:42.099Z,21.80
2022-08-23T19:31:11.461Z,18.10
2022-08-23T19:33:40.531Z,19.50
2022-08-23T19:36:23.665Z,16.30
2022-08-23T19:38:57.375Z,19.30
2022-08-23T19:41:25.638Z,19.60
2022-08-23T19:43:54.354Z,18.50
2022-08-23T19:46:22.847Z,21.60
2022-08-23T19:48:51.528Z,18.70
2022-08-23T19:51:20.715Z,16.00
2022-08-23T19:54:04.720Z,17.30
2022-08-23T19:56:46.948Z,19.00
2022-08-23T19:59:21.810Z,22.80
2022-08-23T20:01:50.493Z,18.00
2022-08-23T20:04:19.771Z,18.40
2022-08-23T20:06:49.144Z,19.80
2022-08-23T20:09:42.204Z,17.70
2022-08-23T20:12:11.612Z,17.80
2022-08-23T20:14:39.704Z,17.00
2022-08-23T20:17:07.952Z,21.30
2022-08-23T20:19:41.198Z,18.00
2022-08-23T20:22:28.070Z,20.10
2022-08-23T20:24:56.152Z,16.60
2022-08-23T20:27:30.870Z,20.30
2022-08-23T20:30:01.686Z,20.10
2022-08-23T20:32:31.780Z,20.00
2022-08-23T20:35:01.873Z,17.50
2022-08-23T20:37:30.512Z,18.80
2022-08-23T20:39:58.939Z,18.00
2022-08-23T20:42:27.326Z,13.90
2022-08-23T20:44:55.885Z,15.50
2022-08-23T20:47:24.432Z,15.10
2022-08-23T20:49:52.597Z,14.20
2022-08-23T20:52:20.705Z,16.20
2022-08-23T20:54:48.981Z,10.30
2022-08-23T20:57:17.151Z,11.00
2022-08-23T20:59:45.418Z,12.50
2022-08-23T21:02:13.769Z,9.70
2022-08-23T21:04:41.896Z,11.50
2022-08-23T21:07:10.077Z,8.60
2022-08-23T21:09:38.169Z,10.70
2022-08-23T21:12:06.769Z,9.10
2022-08-23T21:14:35.306Z,10.60
2022-08-23T21:17:03.585Z,9.30
2022-08-23T21:19:31.767Z,9.90
2022-08-23T21:22:00.232Z,8.40
2022-08-23T21:24:28.539Z,9.00
2022-08-23T21:26:56.647Z,12.80
2022-08-23T21:29:24.787Z,8.10
2022-08-23T21:31:54.013Z,6.30
2022-08-23T21:34:22.171Z,9.80
2022-08-23T21:36:51.532Z,9.10
2022-08-23T21:39:19.692Z,13.20
2022-08-23T21:41:48.550Z,13.00
2022-08-23T21:44:20.330Z,9.40
2022-08-23T21:46:49.192Z,8.70
2022-08-23T21:49:42.344Z,6.90
2022-08-23T21:52:10.419Z,7.90
2022-08-23T21:54:43.306Z,9.20
2022-08-23T21:57:37.411Z,11.00
2022-08-23T22:00:30.445Z,6.10
2022-08-23T22:03:02.533Z,8.00
2022-08-23T22:05:31.930Z,9.50
2022-08-23T22:08:00.040Z,7.50
2022-08-23T22:10:28.429Z,9.40
2022-08-23T22:12:57.347Z,12.60
2022-08-23T22:15:26.004Z,7.80
2022-08-23T22:17:54.109Z,8.40
2022-08-23T22:20:47.116Z,8.40
2022-08-23T22:23:15.260Z,8.40
2022-08-23T22:26:08.406Z,7.00
2022-08-23T22:28:36.826Z,11.10
2022-08-23T22:31:06.988Z,10.10
2022-08-23T22:33:35.347Z,9.10
2022-08-23T22:36:16.650Z,8.00
2022-08-23T22:38:46.058Z,9.30
2022-08-23T22:41:19.605Z,10.20
2022-08-23T22:46:16.872Z,6.60
2022-08-23T22:48:45.546Z,5.80
2022-08-23T22:51:18.337Z,8.30
2022-08-23T22:53:51.442Z,7.20
2022-08-23T22:56:22.944Z,7.10
2022-08-23T22:58:53.558Z,6.40
2022-08-23T23:01:26.228Z,5.50
2022-08-23T23:03:56.604Z,9.20
2022-08-23T23:06:25.397Z,8.80
2022-08-23T23:09:19.515Z,8.60
2022-08-23T23:11:48.499Z,8.90
2022-08-23T23:14:19.294Z,6.80
2022-08-23T23:16:49.546Z,9.10
2022-08-23T23:19:36.831Z,14.30
2022-08-23T23:22:07.897Z,6.80
2022-08-23T23:24:38.757Z,11.20
2022-08-23T23:27:07.685Z,8.10
2022-08-23T23:30:01.299Z,8.10
2022-08-23T23:32:29.417Z,8.90
2022-08-23T23:34:57.910Z,7.70
2022-08-23T23:37:55.199Z,9.40
2022-08-23T23:40:24.517Z,9.90
2022-08-23T23:42:53.567Z,8.50
2022-08-23T23:45:23.285Z,9.90
2022-08-23T23:47:52.082Z,10.70
2022-08-23T23:50:46.963Z,7.50
2022-08-23T23:53:15.906Z,11.00
2022-08-23T23:56:10.695Z,9.20
2022-08-23T23:58:39.220Z,11.40
